createdAt,value
2023-05-21T00:00:02.493Z,22.40
2023-05-21T00:03:01.467Z,22.80
2023-05-21T00:05:30.147Z,20.60
2023-05-21T00:08:00.395Z,19.80
2023-05-21T00:10:29.006Z,24.20
2023-05-21T00:12:57.884Z,20.40
2023-05-21T00:15:26.489Z,22.00
2023-05-21T00:17:55.419Z,22.60
2023-05-21T00:20:24.135Z,23.00
2023-05-21T00:22:53.014Z,23.40
2023-05-21T00:25:23.077Z,27.60
2023-05-21T00:27:51.998Z,23.00
2023-05-21T00:30:20.742Z,21.80
2023-05-21T00:32:49.677Z,22.80
2023-05-21T00:35:18.491Z,23.00
2023-05-21T00:37:47.787Z,23.60
2023-05-21T00:40:17.007Z,21.40
2023-05-21T00:42:48.040Z,24.00
2023-05-21T00:45:16.828Z,26.60
2023-05-21T00:47:48.456Z,21.60
2023-05-21T00:50:17.601Z,25.40
2023-05-21T00:52:46.591Z,24.40
2023-05-21T00:55:15.516Z,24.40
2023-05-21T00:57:46.092Z,24.60
2023-05-21T01:00:16.758Z,20.80
2023-05-21T01:02:46.469Z,22.40
2023-05-21T01:05:15.595Z,24.20
2023-05-21T01:07:44.608Z,22.40
2023-05-21T01:10:13.836Z,22.40
2023-05-21T01:12:45.586Z,25.60
2023-05-21T01:15:14.483Z,25.80
2023-05-21T01:17:46.110Z,23.60
2023-05-21T01:20:18.210Z,27.60
2023-05-21T01:22:56.600Z,24.40
2023-05-21T01:25:26.313Z,24.00
2023-05-21T01:27:55.318Z,23.20
2023-05-21T01:30:25.930Z,25.60
2023-05-21T01:33:01.965Z,26.00
2023-05-21T01:35:35.101Z,19.60
2023-05-21T01:38:13.636Z,26.20
2023-05-21T01:40:53.337Z,26.00
2023-05-21T01:43:24.843Z,21.80
2023-05-21T01:45:56.377Z,25.60
2023-05-21T01:48:26.771Z,26.20
2023-05-21T01:50:56.947Z,17.20
2023-05-21T01:53:27.563Z,28.80
2023-05-21T01:55:56.421Z,24.20
2023-05-21T01:58:25.310Z,24.80
2023-05-21T02:00:53.945Z,27.40
2023-05-21T02:03:23.146Z,26.00
2023-05-21T02:05:52.414Z,23.20
2023-05-21T02:08:23.525Z,22.60
2023-05-21T02:10:53.542Z,23.80
2023-05-21T02:13:25.813Z,23.20
2023-05-21T02:15:55.405Z,25.40
2023-05-21T02:18:26.425Z,22.60
2023-05-21T02:20:55.207Z,23.00
2023-05-21T02:23:24.162Z,24.80
2023-05-21T02:25:54.105Z,24.20
2023-05-21T02:28:24.081Z,25.80
2023-05-21T02:30:52.961Z,25.80
2023-05-21T02:33:22.836Z,25.40
2023-05-21T02:35:51.448Z,27.40
2023-05-21T02:38:23.116Z,23.40
2023-05-21T02:40:53.392Z,24.00
2023-05-21T02:43:22.345Z,25.00
2023-05-21T02:45:51.518Z,24.40
2023-05-21T02:48:20.516Z,25.80
2023-05-21T02:50:49.094Z,28.20
2023-05-21T02:53:17.910Z,22.40
2023-05-21T02:55:46.482Z,30.60
2023-05-21T02:58:16.919Z,23.40
2023-05-21T03:00:45.949Z,24.00
2023-05-21T03:03:15.015Z,23.40
2023-05-21T03:05:43.772Z,27.80
2023-05-21T03:08:12.823Z,26.00
2023-05-21T03:10:41.900Z,28.60
2023-05-21T03:13:11.016Z,25.40
2023-05-21T03:15:41.045Z,27.80
2023-05-21T03:18:11.875Z,26.80
2023-05-21T03:20:43.742Z,26.80
2023-05-21T03:23:16.294Z,28.00
2023-05-21T03:25:46.189Z,25.60
2023-05-21T03:28:17.895Z,29.40
2023-05-21T03:30:51.141Z,28.60
2023-05-21T03:33:43.490Z,38.50
2023-05-21T03:36:26.686Z,36.25
2023-05-21T03:38:55.607Z,29.25
2023-05-21T03:41:24.425Z,26.40
2023-05-21T03:43:58.160Z,33.60
2023-05-21T03:46:32.538Z,29.00
2023-05-21T03:49:06.559Z,28.60
2023-05-21T03:51:38.411Z,21.00
2023-05-21T03:54:07.988Z,45.75
2023-05-21T03:56:38.769Z,31.00
2023-05-21T03:59:07.759Z,32.75
2023-05-21T04:01:39.207Z,30.00
2023-05-21T04:04:11.233Z,30.25
2023-05-21T04:06:42.396Z,31.60
2023-05-21T04:09:13.029Z,27.40
2023-05-21T04:11:41.680Z,29.25
2023-05-21T04:14:12.863Z,27.80
2023-05-21T04:16:44.221Z,31.00
2023-05-21T04:19:13.419Z,30.60
2023-05-21T04:21:45.131Z,33.20
2023-05-21T04:24:16.424Z,26.60
2023-05-21T04:27:01.600Z,50.50
2023-05-21T04:29:32.740Z,29.80
2023-05-21T04:32:02.896Z,28.80
2023-05-21T04:34:34.083Z,29.00
2023-05-21T04:37:03.348Z,25.60
2023-05-21T04:39:32.829Z,32.75
2023-05-21T04:42:02.163Z,25.50
2023-05-21T04:44:31.286Z,29.75
2023-05-21T04:47:03.363Z,29.00
2023-05-21T04:49:34.990Z,24.20
2023-05-21T04:52:03.781Z,37.00
2023-05-21T04:54:32.634Z,26.25
2023-05-21T04:57:01.256Z,23.60
2023-05-21T04:59:30.308Z,27.00
2023-05-21T05:01:59.118Z,23.80
2023-05-21T05:04:29.368Z,25.00
2023-05-21T05:06:57.962Z,28.50
2023-05-21T05:09:26.989Z,29.20
2023-05-21T05:11:55.576Z,26.50
2023-05-21T05:14:24.574Z,28.50
2023-05-21T05:16:54.475Z,27.25
2023-05-21T05:19:23.753Z,25.00
2023-05-21T05:21:53.980Z,24.00
2023-05-21T05:24:23.571Z,30.75
2023-05-21T05:26:53.312Z,30.50
2023-05-21T05:29:22.382Z,27.50
2023-05-21T05:31:51.162Z,24.80
2023-05-21T05:34:20.776Z,25.80
2023-05-21T05:36:50.974Z,27.40
2023-05-21T05:39:21.434Z,27.50
2023-05-21T05:41:50.626Z,23.75
2023-05-21T05:44:19.560Z,27.80
2023-05-21T05:46:48.150Z,22.00
2023-05-21T05:49:17.098Z,23.20
2023-05-21T05:51:45.777Z,23.20
2023-05-21T05:54:14.692Z,22.80
2023-05-21T05:56:44.694Z,19.80
2023-05-21T05:59:13.962Z,23.00
2023-05-21T06:01:48.559Z,21.80
2023-05-21T06:04:19.146Z,22.60
2023-05-21T06:06:48.329Z,25.40
2023-05-21T06:09:17.465Z,22.60
2023-05-21T06:11:47.364Z,22.20
2023-05-21T06:14:16.608Z,24.40
2023-05-21T06:16:45.232Z,23.00
2023-05-21T06:19:14.548Z,23.00
2023-05-21T06:21:43.193Z,19.00
2023-05-21T06:24:12.046Z,21.40
2023-05-21T06:26:40.863Z,22.40
2023-05-21T06:29:12.254Z,23.20
2023-05-21T06:31:42.242Z,20.80
2023-05-21T06:34:11.895Z,25.50
2023-05-21T06:36:40.440Z,22.60
2023-05-21T06:39:09.452Z,18.80
2023-05-21T06:41:37.968Z,19.20
2023-05-21T06:44:26.213Z,21.60
2023-05-21T06:47:08.710Z,20.40
2023-05-21T06:49:37.896Z,21.00
2023-05-21T06:52:07.086Z,24.00
2023-05-21T06:54:36.448Z,24.20
2023-05-21T06:57:05.402Z,15.80
2023-05-21T06:59:35.750Z,18.80
2023-05-21T07:02:05.455Z,26.50
2023-05-21T07:04:35.958Z,23.40
2023-05-21T07:07:04.977Z,22.60
2023-05-21T07:09:34.144Z,23.60
2023-05-21T07:12:03.350Z,20.00
2023-05-21T07:14:32.348Z,20.40
2023-05-21T07:17:02.633Z,22.20
2023-05-21T07:19:32.486Z,16.80
2023-05-21T07:22:01.495Z,21.80
2023-05-21T07:24:30.781Z,21.00
2023-05-21T07:26:59.539Z,21.40
2023-05-21T07:29:28.944Z,18.80
2023-05-21T07:31:57.650Z,24.50
2023-05-21T07:34:28.088Z,20.40
2023-05-21T07:36:56.820Z,22.40
2023-05-21T07:39:25.956Z,23.60
2023-05-21T07:41:54.819Z,21.00
2023-05-21T07:44:25.442Z,21.20
2023-05-21T07:46:54.162Z,21.00
2023-05-21T07:49:23.188Z,20.00
2023-05-21T07:51:53.617Z,22.40
2023-05-21T07:54:22.790Z,19.80
2023-05-21T07:56:52.107Z,24.40
2023-05-21T07:59:41.058Z,18.80
2023-05-21T08:02:09.822Z,21.20
2023-05-21T08:04:41.166Z,22.40
2023-05-21T08:07:13.819Z,21.00
2023-05-21T08:09:42.948Z,20.80
2023-05-21T08:12:15.709Z,18.00
2023-05-21T08:14:45.689Z,21.40
2023-05-21T08:17:16.311Z,21.00
2023-05-21T08:19:45.296Z,21.80
2023-05-21T08:22:15.247Z,20.00
2023-05-21T08:24:48.366Z,17.80
2023-05-21T08:27:17.343Z,17.40
2023-05-21T08:29:47.064Z,20.40
2023-05-21T08:32:15.820Z,18.60
2023-05-21T08:34:45.323Z,18.40
2023-05-21T08:37:32.299Z,20.00
2023-05-21T08:40:21.711Z,20.25
2023-05-21T08:42:51.242Z,21.00
2023-05-21T08:45:38.388Z,20.40
2023-05-21T08:48:10.310Z,18.20
2023-05-21T08:50:39.598Z,18.40
2023-05-21T08:53:27.152Z,21.60
2023-05-21T08:55:58.955Z,25.60
2023-05-21T08:58:46.091Z,19.60
2023-05-21T09:01:19.613Z,21.80
2023-05-21T09:03:58.968Z,23.20
2023-05-21T09:06:34.139Z,16.20
2023-05-21T09:09:12.945Z,18.40
2023-05-21T09:11:48.573Z,25.20
2023-05-21T09:14:18.694Z,18.80
2023-05-21T09:17:01.475Z,19.80
2023-05-21T09:19:32.472Z,15.40
2023-05-21T09:22:06.026Z,19.20
2023-05-21T09:24:37.017Z,19.40
2023-05-21T09:27:08.330Z,16.40
2023-05-21T09:29:37.932Z,19.20
2023-05-21T09:32:08.812Z,19.20
2023-05-21T09:34:42.414Z,18.00
2023-05-21T09:37:23.875Z,18.60
2023-05-21T09:39:57.496Z,17.40
2023-05-21T09:42:31.314Z,19.40
2023-05-21T09:45:00.454Z,19.00
2023-05-21T09:47:29.609Z,19.50
2023-05-21T09:49:59.527Z,18.50
2023-05-21T09:52:29.741Z,17.75
2023-05-21T09:54:59.821Z,19.00
2023-05-21T09:57:28.919Z,18.20
2023-05-21T09:59:57.677Z,18.00
2023-05-21T10:02:27.845Z,23.40
2023-05-21T10:04:57.989Z,19.00
2023-05-21T10:07:28.370Z,16.25
2023-05-21T10:10:02.016Z,20.40
2023-05-21T10:12:32.601Z,22.25
2023-05-21T10:15:02.651Z,18.40
2023-05-21T10:17:32.185Z,21.00
2023-05-21T10:20:01.834Z,22.00
2023-05-21T10:22:31.964Z,21.00
2023-05-21T10:25:03.772Z,17.80
2023-05-21T10:27:34.724Z,20.60
2023-05-21T10:30:03.623Z,19.20
2023-05-21T10:32:34.285Z,20.20
2023-05-21T10:35:03.459Z,10.80
2023-05-21T10:37:33.653Z,21.20
2023-05-21T10:40:04.338Z,22.20
2023-05-21T10:43:13.332Z,21.00
2023-05-21T10:46:07.315Z,21.00
2023-05-21T10:48:58.844Z,19.50
2023-05-21T10:51:30.678Z,23.75
2023-05-21T10:54:16.935Z,20.00
2023-05-21T10:56:56.266Z,25.75
2023-05-21T10:59:41.315Z,20.00
2023-05-21T11:02:12.748Z,23.60
2023-05-21T11:04:43.391Z,23.50
2023-05-21T11:07:13.561Z,17.80
2023-05-21T11:09:42.567Z,21.80
2023-05-21T11:12:12.946Z,20.80
2023-05-21T11:14:43.610Z,19.60
2023-05-21T11:17:14.734Z,20.40
2023-05-21T11:19:47.423Z,20.20
2023-05-21T11:22:24.407Z,18.20
2023-05-21T11:24:54.191Z,20.20
2023-05-21T11:27:35.136Z,19.40
2023-05-21T11:30:07.255Z,20.40
2023-05-21T11:32:39.035Z,22.25
2023-05-21T11:35:08.951Z,22.25
2023-05-21T11:37:41.755Z,15.40
2023-05-21T11:40:22.587Z,35.75
2023-05-21T11:42:54.891Z,18.20
2023-05-21T11:45:26.390Z,18.00
2023-05-21T11:47:57.321Z,16.80
2023-05-21T11:50:27.489Z,19.40
2023-05-21T11:52:56.167Z,18.00
2023-05-21T11:55:26.268Z,19.75
2023-05-21T11:57:56.771Z,15.25
2023-05-21T12:00:25.634Z,16.00
2023-05-21T12:02:56.110Z,18.00
2023-05-21T12:05:27.345Z,22.00
2023-05-21T12:07:56.727Z,13.40
2023-05-21T12:10:25.914Z,18.75
2023-05-21T12:12:57.537Z,17.40
2023-05-21T12:15:28.064Z,14.80
2023-05-21T12:17:58.000Z,16.40
2023-05-21T12:20:28.598Z,14.40
2023-05-21T12:22:59.310Z,12.25
2023-05-21T12:25:29.921Z,16.25
2023-05-21T12:28:01.482Z,14.50
2023-05-21T12:30:31.150Z,13.25
2023-05-21T12:33:02.174Z,16.75
2023-05-21T12:35:32.089Z,16.20
2023-05-21T12:38:02.483Z,15.40
2023-05-21T12:40:39.298Z,15.50
2023-05-21T12:43:10.337Z,14.75
2023-05-21T12:45:41.084Z,17.00
2023-05-21T12:48:10.230Z,16.25
2023-05-21T12:50:41.890Z,9.50
2023-05-21T12:53:12.208Z,15.00
2023-05-21T12:55:41.664Z,14.25
2023-05-21T12:58:15.076Z,13.25
2023-05-21T13:00:45.555Z,15.50
2023-05-21T13:03:14.584Z,13.75
2023-05-21T13:05:43.535Z,13.75
2023-05-21T13:08:14.455Z,15.50
2023-05-21T13:10:43.452Z,15.25
2023-05-21T13:13:13.698Z,16.00
2023-05-21T13:15:42.631Z,14.00
2023-05-21T13:18:12.473Z,12.75
2023-05-21T13:20:41.384Z,12.50
2023-05-21T13:23:11.726Z,11.00
2023-05-21T13:25:41.109Z,13.50
2023-05-21T13:28:10.548Z,12.75
2023-05-21T13:30:41.105Z,13.75
2023-05-21T13:33:09.732Z,16.25
2023-05-21T13:35:38.802Z,17.25
2023-05-21T13:38:07.472Z,13.50
2023-05-21T13:40:38.887Z,14.50
2023-05-21T13:43:07.704Z,13.25
2023-05-21T13:45:36.678Z,11.50
2023-05-21T13:48:07.475Z,11.25
2023-05-21T13:50:36.663Z,14.25
2023-05-21T13:53:05.416Z,23.25
2023-05-21T13:55:34.367Z,17.75
2023-05-21T13:58:02.926Z,26.25
2023-05-21T14:00:32.117Z,15.25
2023-05-21T14:03:01.302Z,14.75
2023-05-21T14:05:31.917Z,14.50
2023-05-21T14:08:00.653Z,14.50
2023-05-21T14:10:29.608Z,13.25
2023-05-21T14:13:04.631Z,14.25
2023-05-21T14:15:44.680Z,16.20
2023-05-21T14:18:13.407Z,13.00
2023-05-21T14:20:43.774Z,16.00
2023-05-21T14:23:12.383Z,14.60
2023-05-21T14:25:42.725Z,15.60
2023-05-21T14:28:11.238Z,15.60
2023-05-21T14:30:40.366Z,15.20
2023-05-21T14:33:09.065Z,12.80
2023-05-21T14:35:38.324Z,17.00
2023-05-21T14:38:08.530Z,16.60
2023-05-21T14:40:37.535Z,15.40
2023-05-21T14:43:06.540Z,20.00
2023-05-21T14:45:35.734Z,18.00
2023-05-21T14:48:08.481Z,14.80
2023-05-21T14:50:37.608Z,13.75
2023-05-21T14:53:06.769Z,14.20
2023-05-21T14:55:37.708Z,15.40
2023-05-21T14:58:06.809Z,18.20
2023-05-21T15:00:37.317Z,16.00
2023-05-21T15:03:06.710Z,21.75
2023-05-21T15:05:36.470Z,18.25
2023-05-21T15:08:06.090Z,15.60
2023-05-21T15:10:36.655Z,15.60
2023-05-21T15:13:05.333Z,15.60
2023-05-21T15:15:37.088Z,16.80
2023-05-21T15:18:06.052Z,16.40
2023-05-21T15:20:35.070Z,16.00
2023-05-21T15:25:37.037Z,13.00
2023-05-21T15:28:06.245Z,14.20
2023-05-21T15:30:35.339Z,17.80
2023-05-21T15:33:03.915Z,19.00
2023-05-21T15:35:33.261Z,12.00
2023-05-21T15:38:02.231Z,17.40
2023-05-21T15:40:31.346Z,24.00
2023-05-21T15:43:01.512Z,20.50
2023-05-21T15:45:30.689Z,15.75
2023-05-21T15:47:59.417Z,10.00
2023-05-21T15:50:28.466Z,14.00
2023-05-21T15:52:57.122Z,15.00
2023-05-21T15:55:26.172Z,15.80
2023-05-21T15:57:54.934Z,15.60
2023-05-21T16:00:25.666Z,14.25
2023-05-21T16:02:54.341Z,15.40
2023-05-21T16:05:23.354Z,16.25
2023-05-21T16:07:51.951Z,21.50
2023-05-21T16:10:20.835Z,19.75
2023-05-21T16:12:49.499Z,16.80
2023-05-21T16:15:18.529Z,19.20
2023-05-21T16:17:48.687Z,16.80
2023-05-21T16:20:18.885Z,21.25
2023-05-21T16:22:47.445Z,20.75
2023-05-21T16:25:17.686Z,19.40
2023-05-21T16:27:46.253Z,18.40
2023-05-21T16:30:15.303Z,20.00
2023-05-21T16:32:44.049Z,22.25
2023-05-21T16:35:14.369Z,20.00
2023-05-21T16:37:42.996Z,22.75
2023-05-21T16:40:12.716Z,17.80
2023-05-21T16:42:41.335Z,9.60
2023-05-21T16:45:13.352Z,23.75
2023-05-21T16:47:42.011Z,15.80
2023-05-21T16:50:11.574Z,17.60
2023-05-21T16:52:41.664Z,15.00
2023-05-21T16:55:11.020Z,16.60
2023-05-21T16:57:39.764Z,16.00
2023-05-21T17:00:09.561Z,15.00
2023-05-21T17:02:38.302Z,16.40
2023-05-21T17:05:08.193Z,17.20
2023-05-21T17:07:36.856Z,16.40
2023-05-21T17:10:08.592Z,18.00
2023-05-21T17:12:37.259Z,18.60
2023-05-21T17:15:07.395Z,14.20
2023-05-21T17:17:36.168Z,16.60
2023-05-21T17:20:05.602Z,16.20
2023-05-21T17:22:34.142Z,16.00
2023-05-21T17:25:03.143Z,13.80
2023-05-21T17:27:33.586Z,16.40
2023-05-21T17:30:03.977Z,16.40
2023-05-21T17:32:32.757Z,15.80
2023-05-21T17:35:01.711Z,16.40
2023-05-21T17:37:30.710Z,14.20
2023-05-21T17:39:59.881Z,18.00
2023-05-21T17:42:28.439Z,21.80
2023-05-21T17:44:58.820Z,15.60
2023-05-21T17:47:27.878Z,14.60
2023-05-21T17:49:56.934Z,16.60
2023-05-21T17:52:27.020Z,16.20
2023-05-21T17:54:56.277Z,16.80
2023-05-21T17:57:25.147Z,18.60
2023-05-21T17:59:55.206Z,16.20
2023-05-21T18:02:26.052Z,14.60
2023-05-21T18:04:55.034Z,16.40
2023-05-21T18:07:23.665Z,15.40
2023-05-21T18:09:52.648Z,16.00
2023-05-21T18:12:21.475Z,15.80
2023-05-21T18:14:50.389Z,15.80
2023-05-21T18:17:19.085Z,17.20
2023-05-21T18:19:49.429Z,16.40
2023-05-21T18:22:18.036Z,11.40
2023-05-21T18:24:47.015Z,14.00
2023-05-21T18:27:16.021Z,12.80
2023-05-21T18:29:44.989Z,12.80
2023-05-21T18:32:15.346Z,19.00
2023-05-21T18:34:44.451Z,11.00
2023-05-21T18:37:14.510Z,10.20
2023-05-21T18:39:43.729Z,13.80
2023-05-21T18:42:14.018Z,13.00
2023-05-21T18:44:45.949Z,12.80
2023-05-21T18:47:14.767Z,9.00
2023-05-21T18:49:43.685Z,11.20
2023-05-21T18:52:12.482Z,11.40
2023-05-21T18:54:42.624Z,11.80
2023-05-21T18:57:12.103Z,9.80
2023-05-21T18:59:41.069Z,11.40
2023-05-21T19:02:10.704Z,11.40
2023-05-21T19:04:39.906Z,7.80
2023-05-21T19:07:09.174Z,15.40
2023-05-21T19:09:38.919Z,11.40
2023-05-21T19:12:10.030Z,11.20
2023-05-21T19:14:38.971Z,11.00
2023-05-21T19:17:08.437Z,11.40
2023-05-21T19:19:37.439Z,12.40
2023-05-21T19:22:06.798Z,11.80
2023-05-21T19:24:35.818Z,11.00
2023-05-21T19:27:04.476Z,13.40
2023-05-21T19:29:34.781Z,12.60
2023-05-21T19:32:03.802Z,13.60
2023-05-21T19:34:33.269Z,12.20
2023-05-21T19:37:02.013Z,9.00
2023-05-21T19:39:31.789Z,13.00
2023-05-21T19:42:00.529Z,11.00
2023-05-21T19:44:29.565Z,17.20
2023-05-21T19:47:00.177Z,19.50
2023-05-21T19:49:29.539Z,13.40
2023-05-21T19:51:58.276Z,14.00
2023-05-21T19:54:27.764Z,11.00
2023-05-21T19:56:56.870Z,8.60
2023-05-21T19:59:26.320Z,12.40
2023-05-21T20:01:55.084Z,10.80
2023-05-21T20:04:25.599Z,13.40
2023-05-21T20:06:54.244Z,11.40
2023-05-21T20:09:23.241Z,12.00
2023-05-21T20:11:51.907Z,6.80
2023-05-21T20:14:20.872Z,11.40
2023-05-21T20:16:49.596Z,10.40
2023-05-21T20:19:18.758Z,10.80
2023-05-21T20:21:48.998Z,12.20
2023-05-21T20:24:17.914Z,12.20
2023-05-21T20:26:46.753Z,11.60
2023-05-21T20:29:15.827Z,8.80
2023-05-21T20:31:44.901Z,11.20
2023-05-21T20:34:14.119Z,11.20
2023-05-21T20:36:43.525Z,12.80
2023-05-21T20:39:13.774Z,13.20
2023-05-21T20:41:44.822Z,13.40
2023-05-21T20:44:13.786Z,7.80
2023-05-21T20:46:42.521Z,12.40
2023-05-21T20:49:11.967Z,10.80
2023-05-21T20:51:41.364Z,9.60
2023-05-21T20:54:10.884Z,9.00
2023-05-21T20:56:42.855Z,12.40
2023-05-21T20:59:13.018Z,10.20
2023-05-21T21:01:41.680Z,9.60
2023-05-21T21:04:11.457Z,13.00
2023-05-21T21:06:40.590Z,12.60
2023-05-21T21:09:09.596Z,10.60
2023-05-21T21:11:38.226Z,14.40
2023-05-21T21:14:08.806Z,12.00
2023-05-21T21:16:37.486Z,12.60
2023-05-21T21:19:06.434Z,11.00
2023-05-21T21:21:35.104Z,9.00
2023-05-21T21:24:04.117Z,12.20
2023-05-21T21:26:33.093Z,10.60
2023-05-21T21:29:01.973Z,6.20
2023-05-21T21:31:32.015Z,10.00
2023-05-21T21:34:01.017Z,10.60
2023-05-21T21:36:29.927Z,12.60
2023-05-21T21:38:58.913Z,14.00
2023-05-21T21:41:27.626Z,10.40
2023-05-21T21:43:56.844Z,10.80
2023-05-21T21:46:26.335Z,10.80
2023-05-21T21:48:56.699Z,11.40
2023-05-21T21:51:25.422Z,11.20
2023-05-21T21:53:54.300Z,12.00
2023-05-21T21:56:23.253Z,10.40
2023-05-21T21:58:52.233Z,10.20
2023-05-21T22:01:21.322Z,11.00
2023-05-21T22:03:50.443Z,8.80
2023-05-21T22:06:20.603Z,11.20
2023-05-21T22:08:49.648Z,11.80
2023-05-21T22:11:18.551Z,9.00
2023-05-21T22:13:47.640Z,12.40
2023-05-21T22:16:16.428Z,9.20
2023-05-21T22:18:46.218Z,8.60
2023-05-21T22:21:18.418Z,9.80
2023-05-21T22:23:48.946Z,13.00
2023-05-21T22:26:17.563Z,13.60
2023-05-21T22:28:46.412Z,12.20
2023-05-21T22:31:15.139Z,12.20
2023-05-21T22:33:44.267Z,12.00
2023-05-21T22:36:12.963Z,10.00
2023-05-21T22:38:41.924Z,10.80
2023-05-21T22:41:12.198Z,11.00
2023-05-21T22:43:41.539Z,12.80
2023-05-21T22:46:10.203Z,11.80
2023-05-21T22:48:41.843Z,11.00
2023-05-21T22:51:11.373Z,12.20
2023-05-21T22:53:40.303Z,11.60
2023-05-21T22:56:09.054Z,16.20
2023-05-21T22:58:39.317Z,11.80
2023-05-21T23:01:08.028Z,13.00
2023-05-21T23:03:36.872Z,11.40
2023-05-21T23:06:05.715Z,12.80
2023-05-21T23:08:34.684Z,10.20
2023-05-21T23:11:03.524Z,12.20
2023-05-21T23:13:32.922Z,14.40
2023-05-21T23:16:03.871Z,12.80
2023-05-21T23:18:32.864Z,12.40
2023-05-21T23:21:02.622Z,12.60
2023-05-21T23:23:31.648Z,12.00
2023-05-21T23:26:00.368Z,15.00
2023-05-21T23:28:30.905Z,12.60
2023-05-21T23:30:59.508Z,12.40
2023-05-21T23:33:29.755Z,13.20
2023-05-21T23:35:58.292Z,12.80
2023-05-21T23:38:27.671Z,10.80
2023-05-21T23:40:56.234Z,13.60
2023-05-21T23:43:25.120Z,10.80
2023-05-21T23:45:53.909Z,13.60
2023-05-21T23:48:22.784Z,13.20
2023-05-21T23:50:52.968Z,13.20
2023-05-21T23:53:22.043Z,10.60
2023-05-21T23:55:50.591Z,9.40
2023-05-21T23:58:19.848Z,13.40
